dachanshi.com alexa rank chart, dachanshi.com alexa rank daily changes

dachanshi.com alexa rank chart, dachanshi.com alexa rank daily changes

dachanshi.com
Actual rank:
443 146

RANK HISTORY

Date Rank Diff
2017/03/23 443 146 +43 968
2017/03/22 399 178 -32 864
2017/03/21 432 042 -232
2017/03/20 432 274 -4 888
2017/03/19 437 162 +41 018
2017/03/18 396 144 +32 997
2017/03/17 363 147 -31 117
2017/03/16 394 264 +7 312
2017/03/15 386 952 -137
2017/03/14 387 089 -3 504
2017/03/13 390 593 -70 561
2017/03/12 461 154 -88 551
2017/03/11 549 705 +109 355
2017/03/10 440 350 -84 601
2017/03/09 524 951 +665
2017/03/08 524 286 +4 977
2017/03/07 519 309 +14 356
2017/03/06 504 953 +597
2017/03/01 504 356 -33 339
2017/02/28 537 695 -653
2017/02/27 538 348 +2 760
2017/02/26 535 588 -1 084
2017/02/25 536 672 -1 439
2017/02/24 538 111 +14
2017/02/23 538 097 +12 786
2017/02/22 525 311 -7 437
2017/02/21 532 748 -2 924
2017/02/20 535 672 -2 894
2017/02/19 538 566 -73 826
2017/02/18 612 392 +24 152
2017/02/17 588 240 +698
2017/02/16 587 542 -106 589
2017/02/15 694 131 -151
2017/02/14 694 282 -3 922
2017/02/13 698 204 -4 092
2017/02/12 702 296 -2 013
2017/02/11 704 309 -160 075
2017/02/01 864 384 -1 622
2017/01/31 866 006 -5 719
2017/01/30 871 725 -6 563
2017/01/29 878 288 +20 827
2017/01/28 857 461 -759
2017/01/27 858 220 -30 993
2017/01/26 889 213 +1 621
2017/01/25 887 592 +1 709
2017/01/24 885 883 -2 493
2017/01/23 888 376

WIDGET FOR YOUR SITE

DOMAINS WITH THE NEAREST RANK

Domain Rank
abowman.com 443 141
wanjuanba.com 443 142
askthecards.info 443 143
kinetico.co.uk 443 144
wildtree.com 443 145
dachanshi.com 443 146
onlinebaufuchs.de 443 147
antoniogenna.com 443 148
imflain.tumblr.com 443 149
mealeo.com 443 150
simply-assi.com 443 151

DOMAINS WITH THE NEAREST RANK BY TLD .com

Domain Rank
gardentowerproject.com 443 138
historyindia.com 443 140
abowman.com 443 141
wanjuanba.com 443 142
wildtree.com 443 145
dachanshi.com 443 146
antoniogenna.com 443 148
mealeo.com 443 150
simply-assi.com 443 151
oldasspics.com 443 152
chromegameszone.com 443 154